Time;durP1;ratioP1;P1;durP2;ratioP2;P2;SDS_P1;SDS_P2;PMS_P1;PMS_P2;Temp;Humidity;BMP_temperature;BMP_pressure;BME280_temperature;BME280_humidity;BME280_pressure;Samples;Min_cycle;Max_cycle;Signal;HPM_P1;HPM_P2
2022/05/23 00:01:38;;;;;;;10.88;2.90;;;25.70;99.90;;;;;;4993841;28;20125;-52
2022/05/23 00:04:04;;;;;;;11.43;2.97;;;25.70;99.90;;;;;;4993919;28;20035;-51
2022/05/23 00:06:30;;;;;;;6.20;2.85;;;25.70;99.90;;;;;;4994115;28;20034;-51
2022/05/23 00:08:56;;;;;;;7.57;2.53;;;25.70;99.90;;;;;;4993990;28;20026;-52
2022/05/23 00:11:22;;;;;;;14.52;2.95;;;25.70;99.90;;;;;;4994053;28;20109;-51
2022/05/23 00:13:48;;;;;;;10.10;2.67;;;25.70;99.90;;;;;;4994176;28;20030;-52
2022/05/23 00:16:19;;;;;;;8.05;2.83;;;25.70;99.90;;;;;;4993737;28;20088;-52
2022/05/23 00:18:45;;;;;;;12.52;2.95;;;25.60;99.90;;;;;;4993730;28;20022;-52
2022/05/23 00:21:10;;;;;;;9.15;2.72;;;25.60;99.90;;;;;;4993854;28;20061;-52
2022/05/23 00:23:36;;;;;;;11.27;2.63;;;25.60;99.90;;;;;;4993826;28;20058;-52
2022/05/23 00:26:03;;;;;;;8.10;3.20;;;25.50;99.90;;;;;;4993673;28;20041;-52
2022/05/23 00:28:29;;;;;;;7.32;2.53;;;25.50;99.90;;;;;;4993538;28;20037;-52
2022/05/23 00:30:54;;;;;;;9.48;3.15;;;25.50;99.90;;;;;;4993511;28;20052;-52
2022/05/23 00:36:05;;;;;;;9.13;2.05;;;25.50;99.90;;;;;;4993864;28;20041;-52
2022/05/23 00:38:30;;;;;;;6.45;2.47;;;25.40;99.90;;;;;;4993462;28;20033;-51
2022/05/23 00:44:18;;;;;;;15.82;2.83;;;25.40;99.90;;;;;;4989471;28;20131;-51
2022/05/23 00:46:51;;;;;;;17.67;3.17;;;25.30;99.90;;;;;;4993167;28;20484;-52
2022/05/23 00:49:23;;;;;;;21.25;3.85;;;25.30;99.90;;;;;;4993340;28;20033;-51
2022/05/23 00:51:50;;;;;;;17.85;3.20;;;25.30;99.90;;;;;;4993325;28;20422;-53
2022/05/23 00:54:17;;;;;;;16.23;3.65;;;25.30;99.90;;;;;;4993074;28;20027;-52
2022/05/23 00:56:45;;;;;;;;;;;25.30;99.90;;;;;;4993514;28;20034;-52
2022/05/23 00:59:15;;;;;;;10.68;2.90;;;25.30;99.90;;;;;;4993129;28;20346;-53
2022/05/23 01:01:41;;;;;;;10.43;3.33;;;25.20;99.90;;;;;;4991442;28;20054;-52
2022/05/23 01:04:07;;;;;;;7.88;2.78;;;25.20;99.90;;;;;;4992901;28;20029;-52
2022/05/23 01:06:34;;;;;;;11.60;2.70;;;25.20;99.90;;;;;;4992979;28;20031;-52
2022/05/23 01:09:00;;;;;;;16.52;3.05;;;25.20;99.90;;;;;;4992897;28;20023;-52
2022/05/23 01:11:27;;;;;;;9.40;2.70;;;25.20;99.90;;;;;;4992730;28;20023;-52
2022/05/23 01:13:53;;;;;;;12.73;2.78;;;25.10;99.90;;;;;;4993118;28;20054;-52
2022/05/23 01:16:21;;;;;;;17.23;4.13;;;25.10;99.90;;;;;;4992718;28;20045;-52
2022/05/23 01:18:47;;;;;;;7.95;2.35;;;25.10;99.90;;;;;;4992748;28;20033;-52
2022/05/23 01:21:55;;;;;;;8.82;2.60;;;25.10;99.90;;;;;;4992654;28;20030;-52
2022/05/23 01:24:35;;;;;;;9.10;3.08;;;25.10;99.90;;;;;;4992596;28;20026;-51
2022/05/23 01:27:02;;;;;;;9.38;2.55;;;25.10;99.90;;;;;;4992484;28;20533;-51
2022/05/23 01:29:27;;;;;;;9.63;2.85;;;25.10;99.90;;;;;;4992860;28;20371;-52
2022/05/23 01:31:55;;;;;;;7.57;2.70;;;25.00;99.90;;;;;;4992657;28;20121;-51
2022/05/23 01:34:21;;;;;;;;;;;25.00;99.90;;;;;;4992940;28;20180;-51
2022/05/23 01:36:47;;;;;;;7.93;2.53;;;25.00;99.90;;;;;;4992613;28;20872;-51
2022/05/23 01:39:12;;;;;;;10.55;2.53;;;25.00;99.90;;;;;;4992280;28;20027;-51
2022/05/23 01:41:38;;;;;;;19.15;3.25;;;25.00;99.90;;;;;;4992423;28;20033;-51
2022/05/23 01:44:04;;;;;;;8.20;2.80;;;25.00;99.90;;;;;;4990828;28;20081;-51
2022/05/23 01:46:30;;;;;;;8.68;2.55;;;25.00;99.90;;;;;;4992220;28;20034;-50
2022/05/23 01:48:56;;;;;;;7.00;2.25;;;25.00;99.90;;;;;;4992357;28;20022;-51
2022/05/23 01:51:22;;;;;;;10.60;2.80;;;25.00;99.90;;;;;;4990750;28;20065;-52
2022/05/23 01:53:47;;;;;;;7.95;2.45;;;25.00;99.90;;;;;;4992246;28;20619;-51
2022/05/23 01:56:13;;;;;;;7.05;2.38;;;25.00;99.90;;;;;;4992057;28;20527;-51
2022/05/23 02:01:25;;;;;;;11.15;3.78;;;25.00;99.90;;;;;;4992527;28;20454;-51
2022/05/23 02:03:51;;;;;;;7.72;2.45;;;25.00;99.90;;;;;;4991973;28;20046;-51
2022/05/23 02:06:17;;;;;;;7.50;2.50;;;25.00;99.90;;;;;;4992135;28;20406;-51
2022/05/23 02:08:43;;;;;;;7.18;2.63;;;25.00;99.90;;;;;;5006975;28;20022;-51
2022/05/23 02:11:09;;;;;;;7.70;3.17;;;25.00;99.90;;;;;;4991849;28;20088;-50
2022/05/23 02:13:37;;;;;;;13.50;3.30;;;25.00;99.90;;;;;;4991963;28;20431;-51
2022/05/23 02:16:03;;;;;;;;;;;25.00;99.90;;;;;;4992193;28;20546;-50
2022/05/23 02:18:29;;;;;;;5.75;2.28;;;25.00;99.90;;;;;;4992210;28;19993;-50
2022/05/23 02:20:55;;;;;;;10.63;2.40;;;24.90;99.90;;;;;;4992056;28;20023;-49
2022/05/23 02:23:21;;;;;;;9.80;3.17;;;24.90;99.90;;;;;;4991723;28;20494;-50
2022/05/23 02:25:47;;;;;;;9.05;2.72;;;25.00;99.90;;;;;;4991758;28;20109;-50
2022/05/23 02:28:12;;;;;;;7.22;3.22;;;25.00;99.90;;;;;;4991721;28;20054;-50
2022/05/23 02:30:38;;;;;;;6.68;2.45;;;24.90;99.90;;;;;;4991795;28;20053;-50
2022/05/23 02:33:04;;;;;;;13.25;2.72;;;24.90;99.90;;;;;;5006772;28;20029;-50
2022/05/23 02:35:30;;;;;;;7.10;2.45;;;24.90;99.90;;;;;;4991688;28;20451;-51
2022/05/23 02:37:56;;;;;;;6.40;2.47;;;24.90;99.90;;;;;;4991998;28;20419;-51
2022/05/23 02:40:22;;;;;;;11.35;2.63;;;24.90;99.90;;;;;;4991631;28;20368;-50
2022/05/23 02:42:48;;;;;;;9.52;2.72;;;24.90;99.90;;;;;;4991636;28;20101;-50
2022/05/23 02:45:14;;;;;;;8.55;2.80;;;24.90;99.90;;;;;;4991534;28;20093;-50
2022/05/23 02:47:40;;;;;;;6.38;2.35;;;24.90;99.90;;;;;;4991600;28;20046;-51
2022/05/23 02:50:08;;;;;;;9.82;2.95;;;24.90;99.90;;;;;;4991520;28;20089;-50
2022/05/23 02:52:34;;;;;;;6.50;2.40;;;24.90;99.90;;;;;;4991568;28;20030;-50
2022/05/23 02:55:00;;;;;;;4.97;2.83;;;24.90;99.90;;;;;;4991791;28;20055;-50
2022/05/23 02:57:26;;;;;;;8.32;2.90;;;24.80;99.90;;;;;;4991732;28;20026;-51
2022/05/23 02:59:52;;;;;;;9.23;2.40;;;24.80;99.90;;;;;;4991979;28;20169;-52
2022/05/23 03:05:03;;;;;;;12.90;2.67;;;24.70;99.90;;;;;;4992007;28;20049;-51
2022/05/23 03:07:28;;;;;;;5.63;2.72;;;24.70;99.90;;;;;;4991646;28;20101;-51
2022/05/23 03:09:54;;;;;;;5.95;2.67;;;24.60;99.90;;;;;;4991509;28;20173;-51
2022/05/23 03:12:20;;;;;;;10.75;2.85;;;24.60;99.90;;;;;;4991483;28;20526;-52
2022/05/23 03:14:46;;;;;;;9.23;3.33;;;24.60;99.90;;;;;;4991342;28;20418;-51
2022/05/23 03:17:12;;;;;;;7.70;2.55;;;24.60;99.90;;;;;;4991391;28;20368;-52
2022/05/23 03:19:38;;;;;;;10.95;2.63;;;24.60;99.90;;;;;;4991300;28;20026;-51
2022/05/23 03:27:38;;;;;;;11.10;3.05;;;24.60;99.90;;;;;;4994845;28;20101;-51
2022/05/23 03:30:05;;;;;;;7.85;2.42;;;24.70;99.90;;;;;;4994862;28;20014;-50
2022/05/23 03:32:31;;;;;;;9.18;2.50;;;24.70;99.90;;;;;;4995085;28;20023;-50
2022/05/23 03:34:57;;;;;;;6.07;2.08;;;24.70;99.90;;;;;;4994564;28;20030;-51
2022/05/23 03:37:24;;;;;;;10.85;3.30;;;24.70;99.90;;;;;;4994647;28;20386;-50
2022/05/23 03:39:50;;;;;;;8.40;2.60;;;24.80;99.90;;;;;;4995102;28;20029;-49
2022/05/23 03:42:17;;;;;;;5.50;2.50;;;24.80;99.90;;;;;;5014021;28;20017;-50
2022/05/23 03:44:44;;;;;;;5.70;2.53;;;24.90;99.90;;;;;;5013688;28;20030;-50
2022/05/23 03:47:10;;;;;;;6.18;2.58;;;24.90;99.90;;;;;;5014088;28;20100;-50
2022/05/23 03:49:36;;;;;;;8.48;2.83;;;25.00;99.90;;;;;;5014021;28;20080;-50
2022/05/23 03:52:02;;;;;;;8.15;2.47;;;25.00;99.90;;;;;;5012800;28;20033;-50
2022/05/23 03:54:28;;;;;;;5.93;2.22;;;25.00;99.90;;;;;;5013792;28;20033;-50
2022/05/23 03:57:01;;;;;;;7.40;2.70;;;25.10;99.90;;;;;;5013772;28;20101;-50
2022/05/23 03:59:28;;;;;;;15.57;2.85;;;25.10;99.90;;;;;;5014304;28;20026;-51
2022/05/23 04:01:56;;;;;;;6.07;2.50;;;25.10;99.90;;;;;;5014206;28;20375;-51
2022/05/23 04:04:29;;;;;;;6.65;2.60;;;25.10;99.90;;;;;;5013738;28;20445;-51
2022/05/23 04:06:59;;;;;;;6.00;3.08;;;25.10;99.90;;;;;;5013636;28;20711;-51
2022/05/23 04:09:26;;;;;;;8.35;2.65;;;25.10;99.90;;;;;;5013616;28;20034;-52
2022/05/23 04:11:52;;;;;;;9.70;2.95;;;25.10;99.90;;;;;;5013530;28;20500;-51
2022/05/23 04:14:17;;;;;;;8.07;2.40;;;25.10;99.90;;;;;;5013456;28;20034;-53
2022/05/23 04:16:47;;;;;;;5.85;2.40;;;25.20;99.90;;;;;;5013543;28;20450;-50
2022/05/23 04:19:13;;;;;;;7.85;2.50;;;25.20;99.90;;;;;;5013511;28;20033;-50
2022/05/23 04:21:41;;;;;;;8.30;2.92;;;25.20;99.90;;;;;;5012220;28;20026;-50
2022/05/23 04:24:07;;;;;;;;;;;25.20;99.90;;;;;;5013749;28;20633;-51
2022/05/23 04:26:33;;;;;;;6.95;2.55;;;25.20;99.90;;;;;;5013349;28;20281;-51
2022/05/23 04:28:59;;;;;;;7.78;3.40;;;25.20;99.90;;;;;;5013333;28;20022;-52
2022/05/23 04:31:24;;;;;;;7.57;2.60;;;25.20;99.90;;;;;;5013170;28;20458;-52
2022/05/23 04:36:35;;;;;;;8.25;2.63;;;25.10;99.90;;;;;;5013163;28;20045;-52
2022/05/23 04:39:00;;;;;;;5.30;2.40;;;25.10;99.90;;;;;;5013032;28;20101;-52
2022/05/23 04:41:26;;;;;;;9.35;3.22;;;25.10;99.90;;;;;;5012984;28;20676;-52
2022/05/23 04:43:52;;;;;;;11.85;2.97;;;25.10;99.90;;;;;;5013051;28;20030;-51
2022/05/23 04:46:18;;;;;;;8.73;3.38;;;25.10;99.90;;;;;;5012800;28;20046;-52
2022/05/23 04:51:27;;;;;;;7.43;2.50;;;25.00;99.90;;;;;;5013140;28;20040;-51
2022/05/23 04:53:53;;;;;;;7.85;2.42;;;24.90;99.90;;;;;;5012873;28;20429;-52
2022/05/23 04:56:24;;;;;;;8.98;2.90;;;24.90;99.90;;;;;;5011537;28;20100;-52
2022/05/23 04:58:49;;;;;;;11.77;2.90;;;24.80;99.90;;;;;;5012787;28;20034;-52
2022/05/23 05:01:15;;;;;;;12.68;3.00;;;24.80;99.90;;;;;;5012592;28;20192;-52
2022/05/23 05:03:41;;;;;;;5.43;2.67;;;24.70;99.90;;;;;;5011318;28;20103;-52
2022/05/23 05:06:07;;;;;;;8.75;3.70;;;24.70;99.90;;;;;;5012676;28;20041;-51
2022/05/23 05:08:34;;;;;;;7.28;2.45;;;24.80;99.90;;;;;;5012923;28;20022;-51
2022/05/23 05:11:03;;;;;;;7.50;2.90;;;24.80;99.90;;;;;;5012540;28;20030;-51
2022/05/23 05:13:32;;;;;;;11.27;2.85;;;24.90;99.90;;;;;;5012395;28;20046;-51
2022/05/23 05:16:02;;;;;;;6.97;2.05;;;24.80;99.90;;;;;;5012349;28;20026;-51
2022/05/23 05:18:30;;;;;;;10.20;2.45;;;24.80;99.90;;;;;;5012343;28;20030;-50
2022/05/23 05:21:01;;;;;;;7.80;2.40;;;24.70;99.90;;;;;;5012341;28;20065;-50
2022/05/23 05:23:27;;;;;;;10.20;3.10;;;24.60;99.90;;;;;;5012307;28;20040;-50
2022/05/23 05:25:53;;;;;;;20.63;4.07;;;24.50;99.90;;;;;;5012143;28;20481;-50
2022/05/23 05:28:19;;;;;;;9.35;3.50;;;24.50;99.90;;;;;;5012188;28;20030;-50
2022/05/23 05:30:51;;;;;;;7.53;2.72;;;24.50;99.90;;;;;;5012107;28;20030;-50
2022/05/23 05:33:21;;;;;;;11.00;3.92;;;24.50;99.90;;;;;;5012202;28;20022;-51
2022/05/23 05:35:49;;;;;;;6.13;3.00;;;24.50;99.90;;;;;;5012076;28;20390;-51
2022/05/23 05:38:29;;;;;;;8.98;3.95;;;24.50;99.90;;;;;;5011992;28;20026;-51
2022/05/23 05:41:14;;;;;;;8.07;2.50;;;24.50;99.90;;;;;;5011913;28;20037;-51
2022/05/23 05:43:49;;;;;;;8.82;3.95;;;24.60;99.90;;;;;;5010721;28;20022;-50
2022/05/23 05:46:20;;;;;;;9.93;3.08;;;24.60;99.90;;;;;;5011944;28;20112;-51
2022/05/23 05:48:50;;;;;;;5.57;3.05;;;24.60;99.90;;;;;;5010533;28;20540;-51
2022/05/23 05:51:20;;;;;;;7.88;3.15;;;24.50;99.90;;;;;;5011712;28;20029;-50
2022/05/23 05:53:48;;;;;;;7.65;3.33;;;24.60;99.90;;;;;;5011848;28;20048;-50
2022/05/23 05:56:15;;;;;;;8.43;2.47;;;24.50;99.90;;;;;;5011628;28;20037;-50
2022/05/23 05:58:41;;;;;;;14.32;4.93;;;24.50;99.90;;;;;;5011879;28;20113;-52
2022/05/23 06:01:07;;;;;;;6.72;4.20;;;24.50;99.90;;;;;;5011635;28;20076;-51
2022/05/23 06:03:34;;;;;;;11.35;3.92;;;24.50;99.90;;;;;;5011541;28;20026;-51
2022/05/23 06:11:29;;;;;;;9.52;3.85;;;24.60;99.90;;;;;;5011573;28;20033;-50
2022/05/23 06:13:58;;;;;;;11.60;4.10;;;24.50;99.90;;;;;;5011403;28;20030;-51
2022/05/23 06:16:25;;;;;;;6.93;3.33;;;24.50;99.90;;;;;;5011386;28;20022;-51
2022/05/23 06:18:51;;;;;;;6.95;2.95;;;24.60;99.90;;;;;;5011266;28;20029;-51
2022/05/23 06:21:16;;;;;;;9.52;3.00;;;24.60;99.90;;;;;;5011250;28;20034;-51
2022/05/23 06:23:46;;;;;;;11.43;3.85;;;24.60;99.90;;;;;;5011216;28;20076;-51
2022/05/23 06:26:14;;;;;;;6.95;3.40;;;24.60;99.90;;;;;;5011490;28;20034;-52
2022/05/23 06:28:40;;;;;;;12.73;8.43;;;24.70;99.90;;;;;;5011380;28;20090;-51
2022/05/23 06:31:06;;;;;;;11.25;3.33;;;24.70;99.90;;;;;;5011081;28;20034;-51
2022/05/23 06:33:32;;;;;;;10.15;3.80;;;24.70;99.90;;;;;;5011063;28;20091;-51
2022/05/23 06:35:58;;;;;;;11.43;3.55;;;24.70;99.90;;;;;;5011089;28;20061;-52
2022/05/23 06:38:25;;;;;;;9.00;3.17;;;24.70;99.90;;;;;;5010957;28;20022;-52
2022/05/23 06:40:52;;;;;;;9.45;2.97;;;24.80;99.90;;;;;;5011103;28;20022;-51
2022/05/23 06:43:18;;;;;;;17.92;4.38;;;24.70;99.90;;;;;;5010948;28;20026;-52
2022/05/23 06:45:46;;;;;;;9.27;5.40;;;24.80;99.90;;;;;;5010969;28;20077;-52
2022/05/23 06:48:12;;;;;;;;;;;24.80;99.90;;;;;;5011650;28;20018;-51
2022/05/23 06:50:37;;;;;;;7.97;3.10;;;24.70;99.90;;;;;;5010880;28;19929;-51
2022/05/23 06:53:03;;;;;;;10.80;3.38;;;24.70;99.90;;;;;;5010830;28;20437;-51
2022/05/23 06:55:29;;;;;;;10.35;4.47;;;24.70;99.90;;;;;;5010787;28;20105;-51
2022/05/23 06:57:55;;;;;;;6.50;3.40;;;24.70;99.90;;;;;;5011868;28;20028;-50
2022/05/23 07:00:21;;;;;;;9.73;4.05;;;24.80;99.90;;;;;;5014551;28;20049;-51
2022/05/23 07:02:47;;;;;;;8.85;4.32;;;24.90;99.90;;;;;;5014630;28;20378;-52
2022/05/23 07:13:26;;;;;;;7.43;3.40;;;25.20;99.90;;;;;;5014706;28;20072;-51
2022/05/23 07:15:55;;;;;;;10.10;2.80;;;25.30;99.90;;;;;;5014355;28;20026;-51
2022/05/23 07:18:22;;;;;;;8.52;3.70;;;25.30;99.90;;;;;;5014361;28;20348;-51
2022/05/23 07:20:48;;;;;;;6.50;3.17;;;25.30;99.90;;;;;;5014370;28;20049;-51
2022/05/23 07:23:15;;;;;;;14.98;4.22;;;25.30;99.90;;;;;;5014358;28;20022;-52
2022/05/23 07:25:41;;;;;;;5.55;3.25;;;25.40;99.90;;;;;;5014395;28;20120;-53
2022/05/23 07:28:07;;;;;;;7.60;3.28;;;25.40;99.90;;;;;;5014170;28;20566;-52
2022/05/23 07:30:33;;;;;;;7.95;3.10;;;25.50;99.90;;;;;;5014266;28;20038;-51
2022/05/23 07:33:00;;;;;;;8.73;2.63;;;25.60;99.90;;;;;;5013965;28;20390;-52
2022/05/23 07:35:26;;;;;;;7.35;3.15;;;25.70;99.90;;;;;;5013991;28;20033;-52
2022/05/23 07:37:52;;;;;;;11.18;2.90;;;25.70;99.90;;;;;;5014050;28;20018;-52
2022/05/23 07:40:18;;;;;;;8.48;3.03;;;25.70;99.90;;;;;;5013753;28;20104;-51
2022/05/23 07:42:44;;;;;;;8.05;2.70;;;25.70;99.90;;;;;;5014182;28;20466;-52
2022/05/23 07:45:11;;;;;;;12.25;3.30;;;25.70;99.90;;;;;;5013745;28;20037;-51
2022/05/23 07:47:38;;;;;;;7.60;3.00;;;25.70;99.90;;;;;;5013884;28;20192;-53
2022/05/23 07:50:06;;;;;;;7.47;3.13;;;25.80;99.90;;;;;;5013852;28;20493;-52
2022/05/23 07:52:31;;;;;;;9.25;2.97;;;25.80;99.90;;;;;;5013768;28;20029;-52
2022/05/23 08:00:31;;;;;;;9.77;4.10;;;25.80;99.90;;;;;;5013633;28;20064;-53
2022/05/23 08:00:34;;;;;;;10.93;4.40;;;25.90;99.90;;;;;;5013541;28;20100;-52
2022/05/23 08:03:04;;;;;;;11.70;3.80;;;25.90;99.90;;;;;;5013634;28;20042;-53
2022/05/23 08:05:30;;;;;;;6.22;3.80;;;25.90;99.90;;;;;;5013447;28;20526;-52
2022/05/23 08:07:57;;;;;;;9.75;3.30;;;25.90;99.90;;;;;;5013413;28;20124;-51
2022/05/23 08:10:25;;;;;;;10.82;3.63;;;25.90;99.90;;;;;;5013153;28;20030;-51
2022/05/23 08:12:54;;;;;;;9.90;3.78;;;25.90;99.90;;;;;;5013231;28;20025;-52
2022/05/23 08:15:22;;;;;;;6.63;3.20;;;25.90;99.90;;;;;;5013305;28;20018;-51
2022/05/23 08:17:48;;;;;;;13.85;4.30;;;26.00;99.90;;;;;;5013447;28;20359;-51
2022/05/23 08:20:15;;;;;;;12.82;4.53;;;26.00;99.90;;;;;;5013453;28;20033;-52
2022/05/23 08:22:41;;;;;;;9.15;3.67;;;25.90;99.90;;;;;;5013349;28;20137;-51
2022/05/23 08:25:07;;;;;;;9.80;3.53;;;25.90;99.90;;;;;;5013169;28;20026;-51
2022/05/23 08:27:34;;;;;;;16.73;10.88;;;25.90;99.90;;;;;;5013153;28;20041;-52
2022/05/23 08:30:01;;;;;;;8.05;4.82;;;25.90;99.90;;;;;;5013147;28;20048;-52
2022/05/23 08:32:26;;;;;;;7.60;3.78;;;25.90;99.90;;;;;;5013167;28;20068;-52
2022/05/23 08:34:52;;;;;;;9.60;3.30;;;26.00;99.90;;;;;;5013044;28;20065;-52
2022/05/23 08:37:18;;;;;;;11.27;3.40;;;26.00;99.90;;;;;;5013198;28;20030;-52
2022/05/23 08:39:46;;;;;;;11.30;5.95;;;26.00;99.90;;;;;;5013228;28;20026;-51
2022/05/23 08:42:19;;;;;;;8.75;4.72;;;26.00;99.90;;;;;;5012922;28;20033;-52
2022/05/23 08:44:47;;;;;;;8.35;4.15;;;26.00;99.90;;;;;;5012970;28;20029;-52
2022/05/23 08:47:32;;;;;;;9.68;3.67;;;26.10;99.90;;;;;;5012824;28;20033;-53
2022/05/23 08:50:14;;;;;;;12.00;4.55;;;26.10;99.90;;;;;;5011552;28;20113;-51
2022/05/23 08:53:04;;;;;;;9.88;5.38;;;26.10;99.90;;;;;;5012853;28;20454;-52
2022/05/23 08:55:35;;;;;;;12.48;5.35;;;26.10;99.90;;;;;;5012651;28;20030;-51
2022/05/23 08:58:11;;;;;;;7.40;4.00;;;26.20;99.90;;;;;;5012637;28;20423;-52
2022/05/23 09:00:41;;;;;;;11.32;3.47;;;26.20;99.90;;;;;;5012492;28;20495;-52
2022/05/23 09:03:09;;;;;;;7.32;3.20;;;26.30;99.90;;;;;;5012485;28;20026;-51
2022/05/23 09:05:41;;;;;;;8.23;3.33;;;26.30;99.90;;;;;;5012434;28;20034;-52
2022/05/23 09:08:11;;;;;;;11.32;3.85;;;26.30;99.90;;;;;;5012514;28;20374;-51
2022/05/23 09:11:06;;;;;;;12.05;3.72;;;26.40;99.90;;;;;;5012386;28;20567;-52
2022/05/23 09:13:37;;;;;;;11.80;4.63;;;26.40;99.90;;;;;;4995171;28;20045;-52
2022/05/23 09:16:04;;;;;;;8.10;3.38;;;26.50;99.90;;;;;;5012318;28;20026;-52
2022/05/23 09:18:44;;;;;;;16.80;3.25;;;26.50;99.90;;;;;;5012031;28;20022;-52
2022/05/23 09:21:10;;;;;;;9.30;2.88;;;26.40;99.90;;;;;;5010254;28;20394;-53
2022/05/23 09:23:52;;;;;;;10.68;5.50;;;26.40;99.90;;;;;;5012258;28;20014;-52
2022/05/23 09:26:26;;;;;;;11.20;7.10;;;26.40;99.90;;;;;;5012176;28;20034;-52
2022/05/23 09:28:52;;;;;;;9.43;3.78;;;26.40;99.90;;;;;;5012125;28;20022;-53
2022/05/23 09:31:34;;;;;;;9.50;3.47;;;26.40;99.90;;;;;;5012330;28;20597;-52
2022/05/23 09:34:00;;;;;;;6.13;3.00;;;26.40;99.90;;;;;;5012105;28;20053;-52
2022/05/23 09:36:40;;;;;;;7.82;3.10;;;26.40;99.90;;;;;;5011881;28;20029;-52
2022/05/23 09:39:09;;;;;;;13.07;3.45;;;26.40;99.90;;;;;;5011950;28;20227;-53
2022/05/23 09:50:07;;;;;;;11.43;3.92;;;26.40;99.90;;;;;;5012034;28;20202;-52
2022/05/23 09:52:42;;;;;;;12.10;3.60;;;26.30;99.90;;;;;;5011704;28;20026;-51
2022/05/23 09:55:10;;;;;;;10.90;3.85;;;26.30;99.90;;;;;;5011624;28;20053;-52
2022/05/23 09:57:40;;;;;;;10.43;4.32;;;26.30;99.90;;;;;;5011566;28;20029;-52
2022/05/23 10:00:26;;;;;;;16.30;5.50;;;26.40;99.90;;;;;;5011448;28;20034;-51
2022/05/23 10:02:59;;;;;;;11.52;5.20;;;26.40;99.90;;;;;;5011628;28;20032;-52
2022/05/23 10:05:37;;;;;;;16.55;4.53;;;26.40;99.90;;;;;;5011301;28;20125;-52
2022/05/23 10:08:05;;;;;;;9.90;4.18;;;26.40;99.90;;;;;;5011356;28;20097;-52
2022/05/23 10:10:36;;;;;;;9.38;4.20;;;26.50;99.90;;;;;;5011476;28;20486;-52
2022/05/23 10:13:30;;;;;;;10.38;4.30;;;26.50;99.90;;;;;;5011339;28;20033;-52
2022/05/23 10:15:59;;;;;;;13.10;3.75;;;26.50;99.90;;;;;;5011315;28;20429;-52
2022/05/23 10:18:34;;;;;;;12.10;3.83;;;26.60;99.90;;;;;;5011275;28;20065;-52
2022/05/23 10:21:17;;;;;;;17.08;4.50;;;26.60;99.90;;;;;;5011388;28;20052;-51
2022/05/23 10:24:06;;;;;;;10.25;4.43;;;26.60;99.90;;;;;;5011374;28;20038;-52
2022/05/23 10:26:54;;;;;;;11.38;5.00;;;26.60;99.90;;;;;;5011165;28;20508;-52
2022/05/23 10:29:44;;;;;;;13.57;4.70;;;26.60;99.90;;;;;;5006789;28;20038;-52
2022/05/23 10:32:14;;;;;;;15.52;4.57;;;26.60;99.90;;;;;;5009658;28;20057;-52
2022/05/23 10:34:43;;;;;;;13.40;5.20;;;26.60;99.90;;;;;;5014087;28;20076;-52
2022/05/23 10:37:19;;;;;;;11.05;4.85;;;26.50;99.90;;;;;;5014276;28;20026;-52
2022/05/23 10:42:51;;;;;;;11.85;3.65;;;26.60;99.90;;;;;;5010642;28;20488;-52
2022/05/23 10:45:36;;;;;;;12.40;4.15;;;26.60;99.90;;;;;;5014006;28;20458;-52
2022/05/23 10:48:27;;;;;;;13.05;4.60;;;26.50;99.90;;;;;;5013641;28;20040;-52
2022/05/23 10:50:55;;;;;;;12.95;4.88;;;26.40;99.90;;;;;;5014959;28;20041;-52
2022/05/23 10:53:47;;;;;;;12.70;5.53;;;26.40;99.90;;;;;;5012813;28;20038;-51
2022/05/23 10:56:25;;;;;;;14.95;4.47;;;26.40;99.90;;;;;;5013633;28;20022;-52
2022/05/23 10:59:09;;;;;;;10.73;3.95;;;26.60;99.90;;;;;;5013598;28;20108;-52
2022/05/23 11:01:40;;;;;;;10.05;3.97;;;26.70;99.90;;;;;;5010539;28;20037;-51
2022/05/23 11:04:12;;;;;;;12.43;3.50;;;26.70;99.90;;;;;;5014027;28;20029;-49
2022/05/23 11:06:57;;;;;;;16.10;6.82;;;26.80;99.90;;;;;;4996301;28;20034;-53
2022/05/23 11:09:31;;;;;;;11.23;3.35;;;27.10;99.90;;;;;;4999076;28;20018;-53
2022/05/23 11:12:19;;;;;;;10.93;3.60;;;27.50;99.90;;;;;;4994967;28;20106;-54
2022/05/23 11:14:54;;;;;;;10.93;3.30;;;27.60;99.90;;;;;;4995282;28;20033;-52
2022/05/23 11:17:22;;;;;;;12.18;4.38;;;27.80;99.90;;;;;;5010718;28;20466;-51
2022/05/23 11:20:08;;;;;;;14.32;3.05;;;27.70;99.90;;;;;;5004893;28;20500;-50
2022/05/23 11:22:49;;;;;;;11.48;3.83;;;27.90;99.90;;;;;;4995298;28;20030;-49
2022/05/23 11:25:30;;;;;;;13.43;5.32;;;28.00;99.90;;;;;;5007731;28;20026;-49
2022/05/23 11:34:29;;;;;;;15.18;6.40;;;28.00;99.90;;;;;;5013024;28;20082;-50
2022/05/23 11:37:08;;;;;;;11.30;3.92;;;28.00;99.90;;;;;;4996229;28;20110;-53
2022/05/23 11:39:54;;;;;;;11.15;4.07;;;28.00;99.90;;;;;;4998124;28;20025;-53
2022/05/23 11:42:34;;;;;;;12.05;4.43;;;28.10;99.90;;;;;;4993447;28;20031;-53
2022/05/23 11:47:51;;;;;;;19.13;7.55;;;27.80;99.90;;;;;;5004630;28;20115;-55
2022/05/23 11:50:29;;;;;;;13.45;4.78;;;27.60;99.90;;;;;;5003936;28;20027;-51
2022/05/23 11:53:20;;;;;;;15.20;7.53;;;27.50;99.90;;;;;;5011810;28;20038;-53
2022/05/23 11:55:55;;;;;;;18.65;7.13;;;27.50;99.90;;;;;;4995756;28;20035;-51
2022/05/23 11:58:42;;;;;;;12.75;3.80;;;27.50;99.90;;;;;;5008759;28;20109;-52
2022/05/23 12:01:10;;;;;;;14.07;4.55;;;27.20;99.90;;;;;;5013382;28;20449;-52
2022/05/23 12:03:51;;;;;;;13.48;4.22;;;27.10;99.90;;;;;;5011662;28;20053;-50
2022/05/23 12:06:36;;;;;;;11.75;6.50;;;27.10;99.90;;;;;;5012675;28;20467;-52
2022/05/23 12:09:06;;;;;;;14.10;6.13;;;27.10;99.90;;;;;;4997383;28;20042;-52
2022/05/23 12:11:41;;;;;;;17.40;4.50;;;27.10;99.90;;;;;;4992658;28;20395;-50
2022/05/23 12:14:17;;;;;;;16.38;4.70;;;27.20;99.90;;;;;;4996323;28;20105;-51
2022/05/23 12:16:59;;;;;;;19.47;3.90;;;27.30;99.90;;;;;;5006591;28;20026;-53
2022/05/23 12:19:27;;;;;;;12.82;5.45;;;27.40;99.90;;;;;;5008330;28;20076;-50
2022/05/23 12:22:12;;;;;;;17.08;6.13;;;27.60;99.90;;;;;;5001535;28;20065;-52
2022/05/23 12:24:56;;;;;;;22.40;11.02;;;27.60;99.90;;;;;;5006430;28;20026;-52
2022/05/23 12:27:38;;;;;;;15.82;6.13;;;27.70;99.90;;;;;;4994129;28;20026;-53
2022/05/23 12:30:26;;;;;;;13.38;4.97;;;27.70;99.90;;;;;;5004844;28;20033;-53
2022/05/23 12:32:55;;;;;;;9.55;2.95;;;27.90;99.90;;;;;;5001532;28;20029;-53
2022/05/23 12:35:32;;;;;;;10.27;4.10;;;28.00;99.90;;;;;;5009950;28;20478;-55
2022/05/23 12:38:16;;;;;;;14.20;5.07;;;28.10;99.90;;;;;;4999271;28;20053;-51
2022/05/23 12:41:10;;;;;;;9.05;4.05;;;28.10;99.90;;;;;;4993559;28;20033;-52
2022/05/23 12:44:05;;;;;;;11.65;4.72;;;28.10;99.90;;;;;;5006362;28;20022;-52
2022/05/23 12:46:40;;;;;;;14.55;3.95;;;28.10;99.90;;;;;;4927377;28;20052;-51
2022/05/23 12:49:07;;;;;;;11.30;3.53;;;28.20;99.90;;;;;;4996385;28;20032;-52
2022/05/23 12:52:16;;;;;;;11.40;4.03;;;28.30;99.90;;;;;;5009454;28;20025;-51
2022/05/23 12:55:15;;;;;;;12.73;3.55;;;28.30;99.90;;;;;;4971022;28;20046;-50
2022/05/23 12:58:03;;;;;;;11.95;4.13;;;28.30;99.90;;;;;;5006008;28;20041;-50
2022/05/23 13:00:46;;;;;;;10.57;4.10;;;28.40;99.90;;;;;;5012227;28;20108;-53
2022/05/23 13:03:23;;;;;;;18.92;4.82;;;28.40;99.90;;;;;;5012209;28;20028;-54
2022/05/23 13:05:57;;;;;;;16.77;5.22;;;28.40;99.90;;;;;;5011854;28;20076;-53
2022/05/23 13:08:32;;;;;;;12.10;3.45;;;28.40;99.90;;;;;;5012253;28;20040;-52
2022/05/23 13:11:03;;;;;;;14.05;4.32;;;28.60;99.90;;;;;;5012020;28;20029;-52
2022/05/23 13:13:45;;;;;;;15.65;7.20;;;28.60;99.90;;;;;;5005110;28;20082;-51
2022/05/23 13:16:25;;;;;;;15.30;5.50;;;28.70;99.90;;;;;;4992475;28;20014;-49
2022/05/23 13:27:12;;;;;;;18.00;5.60;;;28.40;99.90;;;;;;4991982;28;20181;-49
2022/05/23 13:29:38;;;;;;;11.85;5.50;;;28.40;99.90;;;;;;4992205;28;20177;-51
2022/05/23 13:32:10;;;;;;;20.75;8.95;;;28.40;99.90;;;;;;4992012;28;20056;-52
2022/05/23 13:34:38;;;;;;;16.88;4.82;;;28.60;99.90;;;;;;4991649;28;20013;-52
2022/05/23 13:37:06;;;;;;;16.48;6.63;;;28.60;99.90;;;;;;5002837;28;20245;-54
2022/05/23 13:39:41;;;;;;;17.27;6.40;;;28.60;99.90;;;;;;5010531;28;20097;-52
2022/05/23 13:42:28;;;;;;;12.75;4.43;;;28.70;99.90;;;;;;5001688;28;20036;-53
2022/05/23 13:45:10;;;;;;;15.50;5.07;;;28.70;99.90;;;;;;4993486;28;20101;-53
2022/05/23 13:47:39;;;;;;;18.10;5.22;;;28.70;99.90;;;;;;5010926;28;20042;-51
2022/05/23 13:50:32;;;;;;;10.18;4.03;;;28.80;99.90;;;;;;5008502;28;20034;-53
2022/05/23 13:53:06;;;;;;;13.02;4.18;;;28.90;99.90;;;;;;4991315;28;20045;-48
2022/05/23 13:55:38;;;;;;;15.68;4.30;;;28.90;99.90;;;;;;4991475;28;20496;-50
2022/05/23 13:58:16;;;;;;;19.05;4.85;;;29.00;99.90;;;;;;5006694;28;20132;-50
2022/05/23 14:00:52;;;;;;;16.05;4.43;;;29.00;99.90;;;;;;5009965;28;20084;-51
2022/05/23 14:03:53;;;;;;;17.83;4.70;;;28.90;99.90;;;;;;5011396;28;20489;-54
2022/05/23 14:06:25;;;;;;;13.30;4.30;;;28.90;99.90;;;;;;4984704;28;20042;-51
2022/05/23 14:08:58;;;;;;;15.35;3.88;;;28.90;99.90;;;;;;4990279;28;20068;-55
2022/05/23 14:11:28;;;;;;;11.23;4.35;;;28.90;99.90;;;;;;4991947;28;20414;-55